Time;durP1;ratioP1;P1;durP2;ratioP2;P2;SDS_P1;SDS_P2;PMS_P1;PMS_P2;Temp;Humidity;BMP_temperature;BMP_pressure;BME280_temperature;BME280_humidity;BME280_pressure;Samples;Min_cycle;Max_cycle;Signal;HPM_P1;HPM_P2
2021/06/02 00:01:26;;;;;;;4.55;2.33;;;;;;;11.97;54.85;101403.59;5083664;28;20080;-70
2021/06/02 00:03:52;;;;;;;6.70;2.20;;;;;;;11.87;55.14;101416.59;5084089;28;20047;-68
2021/06/02 00:06:21;;;;;;;6.28;2.58;;;;;;;11.86;55.31;101417.47;5084623;28;20100;-69
2021/06/02 00:08:46;;;;;;;4.13;2.30;;;;;;;11.75;55.55;101420.03;5084078;28;20031;-70
2021/06/02 00:11:12;;;;;;;4.57;2.22;;;;;;;11.73;55.59;101415.69;5083800;28;20111;-68
2021/06/02 00:13:38;;;;;;;5.10;2.30;;;;;;;11.68;55.82;101420.00;5084210;28;20024;-69
2021/06/02 00:16:03;;;;;;;3.53;2.42;;;;;;;11.62;55.81;101403.53;5084052;28;20020;-69
2021/06/02 00:18:29;;;;;;;4.10;2.35;;;;;;;11.57;56.44;101407.81;5083519;28;20027;-68
2021/06/02 00:20:56;;;;;;;3.35;2.60;;;;;;;11.57;56.56;101414.75;5083798;28;20017;-68
2021/06/02 00:23:21;;;;;;;4.43;2.47;;;;;;;11.47;56.76;101406.91;5083867;28;20115;-68
2021/06/02 00:25:48;;;;;;;3.88;2.30;;;;;;;11.55;56.77;101406.94;5084013;28;20036;-68
2021/06/02 00:28:16;;;;;;;5.50;3.25;;;;;;;11.46;57.32;101409.50;5083817;28;20328;-69
2021/06/02 00:30:44;;;;;;;3.10;2.22;;;;;;;11.43;57.45;101404.31;5083909;28;20074;-68
2021/06/02 00:33:10;;;;;;;3.15;2.05;;;;;;;11.49;57.80;101414.72;5083266;28;20521;-68
2021/06/02 00:35:37;;;;;;;4.35;2.50;;;;;;;11.43;58.11;101409.50;5083890;28;20396;-68
2021/06/02 00:38:03;;;;;;;4.43;2.50;;;;;;;11.38;58.39;101409.47;5083400;28;20083;-68
2021/06/02 00:40:50;;;;;;;4.68;2.67;;;;;;;11.33;58.56;101395.59;5083769;28;20040;-68
2021/06/02 00:43:18;;;;;;;4.93;2.33;;;;;;;11.42;58.70;101407.78;5083650;28;20504;-68
2021/06/02 00:45:44;;;;;;;2.70;1.70;;;;;;;11.29;59.06;101420.72;5082443;28;20107;-69
2021/06/02 00:48:14;;;;;;;3.80;2.55;;;;;;;11.34;59.39;101406.00;5083054;28;20021;-68
2021/06/02 00:50:45;;;;;;;3.90;2.17;;;;;;;11.26;59.63;101416.34;5083659;28;20024;-69
2021/06/02 00:53:10;;;;;;;4.78;2.65;;;;;;;11.20;59.79;101424.13;5083522;28;20088;-68
2021/06/02 00:55:36;;;;;;;3.85;2.35;;;;;;;11.20;60.08;101424.13;5083388;28;20029;-68
2021/06/02 00:58:02;;;;;;;4.10;2.15;;;;;;;11.21;60.05;101428.50;5083233;28;20050;-68
2021/06/02 01:00:28;;;;;;;4.57;2.40;;;;;;;11.17;60.27;101410.28;5083411;28;20031;-69
2021/06/02 01:02:56;;;;;;;3.47;2.10;;;;;;;11.19;60.06;101419.81;5083040;28;20079;-68
2021/06/02 01:05:24;;;;;;;8.52;2.35;;;;;;;11.19;60.36;101413.72;5083438;28;20384;-68
2021/06/02 01:07:54;;;;;;;4.50;2.63;;;;;;;11.22;60.42;101421.53;5081824;28;20017;-67
2021/06/02 01:10:20;;;;;;;3.40;2.30;;;;;;;11.15;60.72;101418.03;5083309;28;20028;-67
2021/06/02 01:12:51;;;;;;;4.15;2.30;;;;;;;11.17;60.61;101416.31;5083918;28;20029;-68
2021/06/02 01:15:20;;;;;;;3.95;2.38;;;;;;;11.11;60.79;101419.75;5087223;28;20021;-68
2021/06/02 01:17:46;;;;;;;4.88;2.05;;;;;;;11.17;60.80;101424.13;5087071;28;20096;-68
2021/06/02 01:20:13;;;;;;;4.07;2.13;;;;;;;11.17;60.76;101412.88;5087582;28;20020;-67
2021/06/02 01:22:40;;;;;;;5.93;2.50;;;;;;;11.11;60.99;101422.38;5087401;28;20063;-67
2021/06/02 01:25:10;;;;;;;3.00;2.20;;;;;;;11.08;61.10;101430.13;5087298;28;20021;-67
2021/06/02 01:27:35;;;;;;;3.17;2.17;;;;;;;11.01;61.24;101424.03;5087253;28;20013;-67
2021/06/02 01:30:03;;;;;;;3.90;2.55;;;;;;;11.05;61.47;101427.53;5087097;28;20028;-68
2021/06/02 01:32:46;;;;;;;3.50;2.80;;;;;;;11.00;61.64;101434.41;5086865;28;20028;-68
2021/06/02 01:35:40;;;;;;;4.65;2.60;;;;;;;11.04;61.59;101433.56;5087151;28;20029;-68
2021/06/02 01:38:05;;;;;;;3.97;2.63;;;;;;;10.93;61.76;101433.50;5086818;28;20021;-67
2021/06/02 01:40:59;;;;;;;4.32;2.65;;;;;;;10.97;61.74;101427.47;5085703;28;20055;-68
2021/06/02 01:43:50;;;;;;;5.18;2.60;;;;;;;10.93;61.94;101435.25;5087011;28;20020;-68
2021/06/02 01:46:34;;;;;;;5.25;2.63;;;;;;;10.86;62.22;101434.31;5086931;28;20044;-67
2021/06/02 01:49:27;;;;;;;4.32;2.67;;;;;;;10.97;62.16;101432.69;5085188;28;20057;-68
2021/06/02 01:52:35;;;;;;;3.70;2.30;;;;;;;10.80;62.36;101445.53;5086659;28;20090;-68
2021/06/02 01:55:37;;;;;;;4.88;2.47;;;;;;;10.76;62.62;101451.56;5086713;28;20032;-68
2021/06/02 01:58:05;;;;;;;6.38;2.78;;;;;;;10.73;62.87;101438.56;5086462;28;20374;-68
2021/06/02 02:00:52;;;;;;;7.30;2.80;;;;;;;10.80;63.03;101442.94;5086613;28;20087;-69
2021/06/02 02:03:53;;;;;;;8.70;2.85;;;;;;;10.84;63.10;101444.72;5086232;28;20488;-67
2021/06/02 02:06:47;;;;;;;3.60;2.83;;;;;;;10.77;63.36;101445.50;5086674;28;20238;-68
2021/06/02 02:09:29;;;;;;;4.50;2.50;;;;;;;10.76;63.52;101442.06;5084932;28;20031;-69
2021/06/02 02:12:01;;;;;;;;;;;;;;;10.86;63.38;101442.13;5086815;28;20028;-68
2021/06/02 02:14:48;;;;;;;5.03;2.28;;;;;;;10.72;63.78;101447.22;5086550;28;19908;-68
2021/06/02 02:17:22;;;;;;;4.47;2.63;;;;;;;10.69;64.03;101442.00;5085952;28;20029;-68
2021/06/02 02:20:24;;;;;;;6.60;2.38;;;;;;;10.64;64.35;101450.59;5086260;28;20028;-68
2021/06/02 02:23:02;;;;;;;5.18;2.83;;;;;;;10.66;64.28;101446.31;5086079;28;20028;-67
2021/06/02 02:26:22;;;;;;;6.43;2.10;;;;;;;10.73;64.38;101448.94;5084227;28;20571;-67
2021/06/02 02:29:06;;;;;;;3.97;2.33;;;;;;;10.73;64.38;101451.53;5063534;28;20029;-68
2021/06/02 02:31:50;;;;;;;4.70;2.88;;;;;;;10.74;64.59;101467.13;5063917;28;20112;-68
2021/06/02 02:34:33;;;;;;;6.90;2.75;;;;;;;10.78;64.56;101462.84;5063132;28;20515;-69
2021/06/02 02:37:05;;;;;;;4.72;2.80;;;;;;;10.85;64.40;101461.16;5046210;28;20040;-69
2021/06/02 02:39:35;;;;;;;;;;;;;;;10.88;64.20;101459.44;5063795;28;20072;-68
2021/06/02 02:42:21;;;;;;;6.85;2.92;;;;;;;10.93;64.24;101456.03;5063028;28;19909;-68
2021/06/02 02:45:01;;;;;;;3.17;2.20;;;;;;;10.80;64.74;101463.72;5063300;28;20025;-69
2021/06/02 02:47:34;;;;;;;4.30;2.60;;;;;;;10.77;64.81;101461.09;5062836;28;20044;-68
2021/06/02 02:50:24;;;;;;;4.95;2.50;;;;;;;10.78;64.82;101455.91;5062835;28;20139;-69
2021/06/02 02:53:12;;;;;;;4.55;2.78;;;;;;;10.79;64.98;101464.56;5063065;28;20025;-69
2021/06/02 02:55:38;;;;;;;6.40;3.05;;;;;;;10.81;64.93;101464.59;5062636;28;20037;-68
2021/06/02 02:58:24;;;;;;;3.65;2.40;;;;;;;10.89;64.66;101458.56;5062831;28;20055;-68
2021/06/02 03:01:04;;;;;;;4.32;2.85;;;;;;;10.85;65.06;101459.44;5062763;28;20043;-71
2021/06/02 03:03:33;;;;;;;3.83;2.10;;;;;;;10.85;65.10;101455.94;5080625;28;20039;-68
2021/06/02 03:06:17;;;;;;;7.13;2.92;;;;;;;10.95;65.23;101464.69;5085494;28;20044;-68
2021/06/02 03:09:01;;;;;;;6.72;2.80;;;;;;;11.06;65.22;101452.63;5083642;28;20044;-68
2021/06/02 03:11:36;;;;;;;4.57;2.65;;;;;;;11.21;65.09;101451.88;5085249;28;20028;-68
2021/06/02 03:14:15;;;;;;;3.60;2.50;;;;;;;11.42;64.69;101454.56;5085372;28;20077;-68
2021/06/02 03:16:43;;;;;;;3.88;2.55;;;;;;;11.37;64.06;101457.16;5085107;28;20032;-69
2021/06/02 03:19:12;;;;;;;8.38;2.85;;;;;;;11.27;64.04;101451.91;5084838;28;20025;-69
2021/06/02 03:22:03;;;;;;;6.63;3.30;;;;;;;11.19;64.19;101458.78;5084945;28;20361;-68
2021/06/02 03:24:29;;;;;;;5.15;2.80;;;;;;;11.12;64.34;101457.00;5085118;28;20032;-68
2021/06/02 03:27:03;;;;;;;3.35;2.35;;;;;;;11.03;64.54;101465.63;5084770;28;20029;-68
2021/06/02 03:29:48;;;;;;;6.10;2.90;;;;;;;10.94;64.71;101465.56;5085086;28;20024;-69
2021/06/02 03:32:40;;;;;;;5.57;2.63;;;;;;;11.02;64.75;101459.53;5084885;28;20028;-70
2021/06/02 03:35:11;;;;;;;3.05;2.28;;;;;;;11.00;64.84;101461.28;5084743;28;20032;-68
2021/06/02 03:38:03;;;;;;;5.90;2.70;;;;;;;10.91;65.00;101456.00;5083660;28;20096;-68
2021/06/02 03:40:50;;;;;;;4.43;3.30;;;;;;;10.93;65.08;101446.50;5084756;28;20639;-67
2021/06/02 03:43:33;;;;;;;3.67;2.58;;;;;;;10.96;65.13;101464.69;5084672;28;20024;-68
2021/06/02 03:46:08;;;;;;;5.65;2.58;;;;;;;10.93;65.15;101451.69;5084635;28;20512;-68
2021/06/02 03:49:06;;;;;;;4.88;3.03;;;;;;;10.94;65.28;101462.97;5082884;28;20032;-68
2021/06/02 03:51:42;;;;;;;6.35;3.00;;;;;;;10.97;65.23;101469.06;5084648;28;20060;-67
2021/06/02 03:54:51;;;;;;;4.55;2.85;;;;;;;11.04;65.19;101456.94;5084370;28;20012;-68
2021/06/02 03:57:35;;;;;;;4.00;2.97;;;;;;;11.01;65.24;101436.16;5083910;28;20098;-67
2021/06/02 04:00:14;;;;;;;3.30;2.80;;;;;;;11.06;65.28;101442.25;5084375;28;20034;-68
2021/06/02 04:02:59;;;;;;;4.30;3.17;;;;;;;11.12;65.19;101437.09;5083981;28;20025;-68
2021/06/02 04:05:24;;;;;;;7.55;2.55;;;;;;;11.12;65.34;101449.19;5084076;28;20516;-67
2021/06/02 04:08:12;;;;;;;6.38;2.63;;;;;;;11.20;65.42;101436.28;5084014;28;20025;-66
2021/06/02 04:11:04;;;;;;;4.53;2.70;;;;;;;11.19;65.50;101434.53;5083991;28;20035;-66
2021/06/02 04:13:50;;;;;;;4.00;2.65;;;;;;;11.24;65.46;101438.03;5083977;28;20036;-65
2021/06/02 04:16:19;;;;;;;3.97;3.10;;;;;;;11.21;65.66;101432.81;5083736;28;20044;-65
2021/06/02 04:18:49;;;;;;;5.38;2.90;;;;;;;11.21;65.81;101435.41;5083501;28;20085;-65
2021/06/02 04:21:17;;;;;;;5.03;3.08;;;;;;;11.17;65.95;101431.91;5082451;28;20020;-68
2021/06/02 04:23:45;;;;;;;6.20;3.13;;;;;;;11.30;65.69;101435.44;5083831;28;20086;-68
2021/06/02 04:26:11;;;;;;;7.15;3.30;;;;;;;11.24;65.86;101441.50;5083755;28;20291;-70
2021/06/02 04:28:37;;;;;;;6.57;3.28;;;;;;;11.17;65.89;101429.31;5083353;28;20021;-67
2021/06/02 04:31:06;;;;;;;4.18;2.65;;;;;;;11.20;66.00;101439.72;5083454;28;20059;-66
2021/06/02 04:33:34;;;;;;;4.88;2.97;;;;;;;11.24;66.16;101440.63;5083067;28;20429;-66
2021/06/02 04:36:00;;;;;;;5.90;3.30;;;;;;;11.26;66.07;101444.09;5083156;28;20054;-67
2021/06/02 04:38:26;;;;;;;4.88;3.20;;;;;;;11.25;65.96;101437.16;5083170;28;20031;-66
2021/06/02 04:40:52;;;;;;;5.93;2.88;;;;;;;11.21;66.11;101436.28;5083630;28;20104;-66
2021/06/02 04:43:19;;;;;;;6.43;3.00;;;;;;;11.28;66.09;101434.56;5083416;28;20465;-67
2021/06/02 04:45:54;;;;;;;5.13;2.95;;;;;;;11.27;66.24;101436.31;5083648;28;20046;-67
2021/06/02 04:48:20;;;;;;;3.10;2.30;;;;;;;11.33;66.34;101447.59;5082785;28;20017;-68
2021/06/02 04:50:55;;;;;;;4.45;2.92;;;;;;;11.37;66.10;101441.56;5083710;28;20096;-68
2021/06/02 04:53:48;;;;;;;9.02;3.08;;;;;;;11.45;65.97;101439.00;5083882;28;20085;-68
2021/06/02 04:56:29;;;;;;;5.25;3.47;;;;;;;11.49;66.01;101436.41;5083856;28;20075;-68
2021/06/02 04:59:30;;;;;;;4.72;3.22;;;;;;;11.61;65.75;101432.97;5082229;28;20044;-68
2021/06/02 05:02:18;;;;;;;6.53;3.10;;;;;;;11.71;65.70;101444.28;5083652;28;20040;-70
2021/06/02 05:05:20;;;;;;;5.88;2.90;;;;;;;11.73;65.80;101437.38;5083412;28;20480;-74
2021/06/02 05:08:04;;;;;;;6.32;2.63;;;;;;;11.84;65.58;101429.59;5083310;28;20084;-70
2021/06/02 05:10:58;;;;;;;4.57;2.88;;;;;;;11.95;65.46;101427.00;5083573;28;20024;-69
2021/06/02 05:13:55;;;;;;;4.53;3.08;;;;;;;12.10;65.35;101421.00;5075152;28;20296;-71
2021/06/02 05:16:45;;;;;;;4.85;2.30;;;;;;;12.85;64.89;101423.63;5083614;28;20019;-71
2021/06/02 05:19:49;;;;;;;4.30;2.53;;;;;;;13.71;63.02;101422.47;5083113;28;20028;-70
2021/06/02 05:22:21;;;;;;;6.55;2.95;;;;;;;14.20;61.39;101433.50;5083339;28;20074;-71
2021/06/02 05:25:20;;;;;;;3.60;2.55;;;;;;;14.90;59.17;101432.06;5083503;28;20024;-77
2021/06/02 05:28:09;;;;;;;5.43;2.47;;;;;;;15.27;56.80;101422.97;5083167;28;20052;-70
2021/06/02 05:31:13;;;;;;;5.25;2.22;;;;;;;15.58;55.54;101423.44;5083391;28;20025;-74
2021/06/02 05:33:49;;;;;;;3.88;2.53;;;;;;;15.81;54.85;101430.13;5081694;28;20118;-75
2021/06/02 05:36:27;;;;;;;4.10;2.83;;;;;;;16.28;54.62;101428.63;5083333;28;20432;-74
2021/06/02 05:39:09;;;;;;;4.22;2.50;;;;;;;16.79;52.58;101435.59;5082761;28;20040;-74
2021/06/02 05:41:59;;;;;;;5.43;2.35;;;;;;;16.93;51.23;101432.72;5083217;28;20051;-74
2021/06/02 05:44:24;;;;;;;5.00;2.75;;;;;;;17.03;50.34;101422.91;5083280;28;20059;-74
2021/06/02 05:47:20;;;;;;;5.50;2.55;;;;;;;17.16;50.63;101427.94;5081691;28;20024;-74
2021/06/02 05:50:03;;;;;;;5.65;2.58;;;;;;;17.20;50.41;101412.13;5082997;28;20055;-74
2021/06/02 05:53:01;;;;;;;4.85;2.55;;;;;;;17.45;49.93;101418.63;5083031;28;20084;-73
2021/06/02 05:55:54;;;;;;;3.65;2.67;;;;;;;17.86;49.20;101423.00;5083009;28;20054;-74
2021/06/02 05:58:40;;;;;;;5.28;2.70;;;;;;;18.14;49.21;101422.38;5082967;28;20041;-74
2021/06/02 06:01:37;;;;;;;6.85;2.85;;;;;;;18.60;48.25;101425.63;5084410;28;20029;-74
2021/06/02 06:04:34;;;;;;;7.13;2.75;;;;;;;19.02;45.62;101427.16;5086581;28;20028;-73
2021/06/02 06:07:25;;;;;;;4.50;2.58;;;;;;;19.04;45.74;101435.84;5085162;28;20047;-73
2021/06/02 06:10:21;;;;;;;4.93;2.50;;;;;;;18.84;45.24;101431.16;5085353;28;20028;-73
2021/06/02 06:12:46;;;;;;;4.25;2.58;;;;;;;18.75;45.30;101428.75;5086697;28;20032;-75
2021/06/02 06:15:34;;;;;;;4.60;2.38;;;;;;;18.87;44.94;101438.09;5086108;28;20024;-76
2021/06/02 06:18:16;;;;;;;4.10;2.38;;;;;;;18.77;45.41;101422.56;5082629;28;20029;-73
2021/06/02 06:21:06;;;;;;;6.70;2.15;;;;;;;18.89;45.17;101436.28;5086653;28;20021;-73
2021/06/02 06:23:56;;;;;;;6.20;2.28;;;;;;;18.96;44.32;101453.66;5085232;28;20031;-71
2021/06/02 06:26:45;;;;;;;8.38;2.75;;;;;;;18.87;44.58;101443.34;5086329;28;20073;-73
2021/06/02 06:29:16;;;;;;;3.53;2.03;;;;;;;18.78;45.87;101434.81;5086269;28;20170;-74
2021/06/02 06:31:44;;;;;;;7.60;3.92;;;;;;;19.03;44.95;101425.38;5086288;28;20024;-73
2021/06/02 06:34:20;;;;;;;4.70;2.40;;;;;;;19.26;44.35;101434.44;5085826;28;20032;-72
2021/06/02 06:36:48;;;;;;;5.10;2.33;;;;;;;19.51;42.99;101421.41;5086133;28;20032;-74
2021/06/02 06:39:18;;;;;;;4.93;2.20;;;;;;;19.43;43.63;101410.25;5086116;28;20027;-72
2021/06/02 06:41:47;;;;;;;3.78;2.35;;;;;;;19.40;43.86;101431.41;5086063;28;20469;-73
2021/06/02 06:44:14;;;;;;;3.90;2.10;;;;;;;19.49;44.10;101436.38;5085919;28;20032;-72
2021/06/02 06:46:41;;;;;;;3.60;1.95;;;;;;;19.81;42.64;101428.41;5085832;28;20052;-69
2021/06/02 06:49:10;;;;;;;4.22;2.45;;;;;;;19.73;43.13;101418.13;5085569;28;20031;-72
2021/06/02 06:51:36;;;;;;;3.80;2.15;;;;;;;19.82;43.11;101422.25;5086007;28;20055;-73
2021/06/02 06:54:03;;;;;;;5.32;2.28;;;;;;;19.92;43.05;101431.56;5085828;28;20396;-74
2021/06/02 06:56:30;;;;;;;3.17;1.90;;;;;;;20.20;41.84;101435.16;5085495;28;20049;-72
2021/06/02 06:58:57;;;;;;;6.72;2.50;;;;;;;20.03;42.09;101435.69;5085624;28;20040;-74
2021/06/02 07:01:23;;;;;;;5.18;2.53;;;;;;;19.82;42.70;101433.63;5085668;28;20016;-74
2021/06/02 07:03:49;;;;;;;3.00;2.25;;;;;;;19.91;42.58;101418.44;5084104;28;20028;-71
2021/06/02 07:06:16;;;;;;;5.47;2.28;;;;;;;19.85;42.62;101414.25;5085600;28;20068;-73
2021/06/02 07:08:46;;;;;;;1.65;1.55;;;;;;;20.17;41.55;101414.16;5084062;28;20017;-68
2021/06/02 07:11:20;;;;;;;3.55;2.53;;;;;;;19.92;41.81;101428.09;5085283;28;20048;-73
2021/06/02 07:13:48;;;;;;;4.40;2.25;;;;;;;19.73;42.32;101441.81;5085437;28;20070;-71
2021/06/02 07:16:15;;;;;;;4.55;2.60;;;;;;;19.54;42.78;101426.59;5084123;28;20416;-73
2021/06/02 07:18:44;;;;;;;5.80;2.20;;;;;;;19.31;43.70;101428.13;5084990;28;20465;-72
2021/06/02 07:21:11;;;;;;;4.97;3.17;;;;;;;19.13;43.66;101426.88;5084315;28;20047;-78
2021/06/02 07:23:40;;;;;;;4.03;2.60;;;;;;;18.79;44.39;101452.31;5085316;28;20074;-73
2021/06/02 07:26:06;;;;;;;4.95;2.53;;;;;;;18.63;45.08;101416.78;5083873;28;20097;-74
2021/06/02 07:28:37;;;;;;;4.72;2.65;;;;;;;19.00;44.89;101457.03;5085089;28;20111;-74
2021/06/02 07:31:04;;;;;;;3.95;2.63;;;;;;;19.23;44.13;101437.16;5085091;28;20055;-80
2021/06/02 07:33:29;;;;;;;3.60;2.50;;;;;;;19.23;44.20;101432.75;5084674;28;20046;-75
2021/06/02 07:35:55;;;;;;;4.65;2.28;;;;;;;19.35;43.74;101417.50;5085109;28;20472;-76
2021/06/02 07:38:20;;;;;;;3.38;1.92;;;;;;;19.95;42.98;101412.19;5084630;28;20016;-71
2021/06/02 07:40:46;;;;;;;3.55;3.25;;;;;;;19.96;42.72;101437.63;5084719;28;20037;-71
2021/06/02 07:43:11;;;;;;;5.63;2.33;;;;;;;20.18;42.40;101424.66;5084726;28;20028;-74
2021/06/02 07:45:37;;;;;;;8.40;2.97;;;;;;;20.47;41.84;101403.47;5084748;28;20016;-73
2021/06/02 07:48:02;;;;;;;3.13;2.05;;;;;;;20.65;41.57;101417.81;5084499;28;20033;-75
2021/06/02 07:50:28;;;;;;;3.75;2.65;;;;;;;20.68;41.28;101438.81;5084347;28;20465;-80
2021/06/02 07:52:53;;;;;;;4.07;2.13;;;;;;;20.62;41.38;101443.44;5084437;28;20074;-80
2021/06/02 07:55:19;;;;;;;4.15;2.50;;;;;;;20.63;41.50;101424.06;5083165;28;20091;-74
2021/06/02 07:57:44;;;;;;;9.02;2.47;;;;;;;20.99;40.42;101428.97;5083971;28;20359;-73
2021/06/02 08:00:11;;;;;;;3.55;2.60;;;;;;;20.82;40.32;101413.72;5084543;28;20103;-69
2021/06/02 08:02:36;;;;;;;5.20;2.80;;;;;;;20.32;41.03;101436.50;5082975;28;20473;-78
2021/06/02 08:05:02;;;;;;;3.88;2.75;;;;;;;20.03;42.02;101428.63;5084317;28;20137;-77
2021/06/02 08:07:27;;;;;;;4.20;2.50;;;;;;;20.16;41.97;101436.16;5084542;28;20038;-75
2021/06/02 08:09:52;;;;;;;3.38;2.40;;;;;;;20.44;41.19;101424.69;5084054;28;20027;-77
2021/06/02 08:12:18;;;;;;;4.43;2.60;;;;;;;20.86;40.51;101417.13;5082770;28;20052;-74
2021/06/02 08:14:43;;;;;;;5.93;2.90;;;;;;;20.99;40.55;101425.50;5084148;28;20025;-76
2021/06/02 08:17:09;;;;;;;3.58;2.42;;;;;;;20.95;40.31;101403.63;5084251;28;20074;-75
2021/06/02 08:19:34;;;;;;;4.15;2.70;;;;;;;21.20;40.04;101429.09;5084034;28;20028;-76
2021/06/02 08:22:00;;;;;;;6.75;2.72;;;;;;;21.30;39.92;101433.13;5082728;28;20032;-72
2021/06/02 08:24:26;;;;;;;5.55;2.92;;;;;;;21.45;39.23;101415.00;5083677;28;20020;-73
2021/06/02 08:26:51;;;;;;;5.68;3.17;;;;;;;21.47;39.45;101415.78;5084091;28;20017;-74
2021/06/02 08:29:17;;;;;;;5.00;2.25;;;;;;;21.65;38.52;101431.81;5083844;28;20028;-74
2021/06/02 08:31:42;;;;;;;5.72;3.10;;;;;;;21.32;39.12;101438.34;5084050;28;20012;-79
2021/06/02 08:34:08;;;;;;;2.75;2.22;;;;;;;21.25;39.56;101421.88;5083701;28;20025;-71
2021/06/02 08:36:33;;;;;;;5.40;2.38;;;;;;;21.57;39.28;101404.84;5083982;28;20021;-71
2021/06/02 08:38:58;;;;;;;4.88;2.95;;;;;;;21.88;38.37;101422.19;5083873;28;20028;-75
2021/06/02 08:41:24;;;;;;;3.78;2.60;;;;;;;22.11;38.27;101420.38;5084030;28;20081;-73
2021/06/02 08:43:49;;;;;;;4.18;3.10;;;;;;;22.18;36.86;101427.13;5083889;28;20044;-74
2021/06/02 08:46:16;;;;;;;4.80;2.70;;;;;;;22.33;36.78;101423.00;5083828;28;20056;-74
2021/06/02 08:48:47;;;;;;;7.00;2.83;;;;;;;21.95;37.76;101421.00;5083374;28;20027;-76
2021/06/02 08:51:12;;;;;;;4.15;2.47;;;;;;;21.61;38.52;101401.19;5082404;28;20024;-77
2021/06/02 08:53:37;;;;;;;3.92;2.70;;;;;;;21.61;38.84;101411.75;5083663;28;20055;-75
2021/06/02 08:56:04;;;;;;;7.75;3.00;;;;;;;21.92;38.62;101394.69;5083669;28;20459;-73
2021/06/02 08:58:30;;;;;;;7.95;3.13;;;;;;;22.13;37.72;101407.94;5083622;28;20028;-75
2021/06/02 09:00:56;;;;;;;8.82;3.67;;;;;;;21.76;37.88;101405.84;5083685;28;20074;-74
2021/06/02 09:03:21;;;;;;;5.78;2.58;;;;;;;22.08;37.54;101399.38;5083391;28;20024;-76
2021/06/02 09:05:47;;;;;;;7.88;3.00;;;;;;;22.49;37.68;101402.00;5083667;28;20035;-80
2021/06/02 09:08:14;;;;;;;6.30;2.63;;;;;;;23.14;36.26;101392.19;5083586;28;20059;-78
2021/06/02 09:10:43;;;;;;;2.47;2.08;;;;;;;23.55;34.98;101390.34;5083580;28;20024;-80
2021/06/02 09:13:21;;;;;;;3.80;2.65;;;;;;;23.28;35.13;101399.47;5083757;28;20020;-75
2021/06/02 09:15:48;;;;;;;10.82;4.07;;;;;;;22.59;36.44;101399.00;5083781;28;20443;-79
2021/06/02 09:18:16;;;;;;;6.03;2.78;;;;;;;22.59;35.99;101401.66;5084994;28;20013;-78
2021/06/02 09:20:53;;;;;;;4.72;2.33;;;;;;;22.60;35.40;101398.97;5083840;28;20042;-78
2021/06/02 09:23:33;;;;;;;3.72;2.42;;;;;;;22.11;37.10;101388.66;5083703;28;20351;-78
2021/06/02 09:26:11;;;;;;;5.53;2.95;;;;;;;22.51;35.94;101388.72;5083561;28;20225;-75
2021/06/02 09:28:53;;;;;;;6.95;2.70;;;;;;;22.64;35.64;101400.53;5083301;28;20508;-73
2021/06/02 09:31:32;;;;;;;3.92;2.80;;;;;;;22.21;35.29;101395.28;5083623;28;20044;-74
2021/06/02 09:34:22;;;;;;;4.72;2.70;;;;;;;21.63;36.87;101391.41;5084052;28;20021;-80
2021/06/02 09:36:50;;;;;;;4.68;2.45;;;;;;;21.65;36.26;101413.34;5086117;28;20036;-76
2021/06/02 09:39:18;;;;;;;4.80;2.72;;;;;;;21.47;36.49;101394.63;5087176;28;20020;-77
2021/06/02 09:41:47;;;;;;;3.83;2.95;;;;;;;21.36;36.90;101370.44;5086313;28;20031;-75
2021/06/02 09:44:16;;;;;;;3.83;2.08;;;;;;;21.47;36.59;101388.50;5087603;28;20017;-73
2021/06/02 09:46:58;;;;;;;4.22;2.58;;;;;;;21.23;37.53;101418.41;5087225;28;20096;-74
2021/06/02 09:49:24;;;;;;;5.47;2.75;;;;;;;21.13;37.72;101406.50;5085523;28;20028;-74
2021/06/02 09:51:49;;;;;;;4.85;2.65;;;;;;;21.37;38.36;101403.84;5086989;28;20071;-74
2021/06/02 09:54:23;;;;;;;5.63;3.13;;;;;;;22.25;35.98;101401.31;5087224;28;20024;-77
2021/06/02 09:56:48;;;;;;;5.75;2.97;;;;;;;21.86;36.13;101411.66;5086779;28;20086;-75
2021/06/02 09:59:15;;;;;;;6.45;2.88;;;;;;;21.52;37.04;101402.38;5086941;28;20075;-73
2021/06/02 10:01:56;;;;;;;10.50;2.67;;;;;;;21.58;36.93;101414.50;5085599;28;20495;-77
2021/06/02 10:04:39;;;;;;;4.82;2.78;;;;;;;21.26;37.04;101409.53;5086687;28;20056;-74
2021/06/02 10:07:20;;;;;;;6.05;3.35;;;;;;;20.89;37.84;101398.53;5086933;28;20025;-74
2021/06/02 10:09:45;;;;;;;5.60;3.70;;;;;;;20.84;38.00;101405.75;5086648;28;20017;-75
2021/06/02 10:12:11;;;;;;;5.05;2.90;;;;;;;20.86;37.78;101417.13;5085292;28;20028;-75
2021/06/02 10:14:41;;;;;;;4.68;2.90;;;;;;;21.10;37.09;101411.88;5086965;28;20068;-74
2021/06/02 10:17:25;;;;;;;6.00;3.03;;;;;;;20.91;37.57;101421.31;5086607;28;20051;-73
2021/06/02 10:19:50;;;;;;;4.70;3.03;;;;;;;20.74;38.00;101416.63;5086387;28;20054;-72
2021/06/02 10:22:22;;;;;;;4.25;2.92;;;;;;;20.74;38.01;101431.59;5086758;28;20028;-74
2021/06/02 10:24:48;;;;;;;;;;;;;;;20.85;36.96;101418.00;5085675;28;20020;-78
2021/06/02 10:27:14;;;;;;;5.60;2.47;;;;;;;20.77;36.99;101426.19;5086368;28;19946;-75
2021/06/02 10:29:40;;;;;;;4.45;3.03;;;;;;;20.58;37.79;101418.94;5086248;28;20042;-73
2021/06/02 10:32:06;;;;;;;5.60;3.35;;;;;;;20.64;37.63;101409.97;5086354;28;20097;-72
2021/06/02 10:34:31;;;;;;;4.55;3.22;;;;;;;20.79;37.40;101421.75;5084633;28;20476;-72
2021/06/02 10:36:58;;;;;;;3.92;3.20;;;;;;;20.79;37.30;101417.34;5086271;28;20025;-74
2021/06/02 10:39:26;;;;;;;6.70;3.00;;;;;;;21.05;36.66;101427.91;5086194;28;20044;-75
2021/06/02 10:41:58;;;;;;;4.13;2.38;;;;;;;21.37;36.45;101404.72;5086153;28;20032;-68
2021/06/02 10:44:47;;;;;;;3.60;2.42;;;;;;;22.08;35.05;101409.94;5086142;28;20024;-72
2021/06/02 10:47:12;;;;;;;4.28;2.20;;;;;;;22.86;33.30;101398.75;5085325;28;20088;-69
2021/06/02 10:49:38;;;;;;;3.90;2.60;;;;;;;22.86;33.64;101404.88;5085569;28;20028;-71
2021/06/02 10:52:05;;;;;;;5.10;2.72;;;;;;;22.92;33.47;101410.81;5084697;28;20081;-73
2021/06/02 10:54:37;;;;;;;5.30;3.13;;;;;;;22.67;33.11;101414.56;5084502;28;20032;-72
2021/06/02 10:57:03;;;;;;;4.75;2.40;;;;;;;22.32;33.45;101404.56;5084183;28;20033;-68
2021/06/02 10:59:33;;;;;;;5.18;3.10;;;;;;;21.96;34.69;101409.50;5085612;28;20028;-71
2021/06/02 11:02:03;;;;;;;3.67;2.42;;;;;;;21.77;35.08;101410.22;5085773;28;20104;-72
2021/06/02 11:04:29;;;;;;;4.80;2.60;;;;;;;22.12;33.91;101407.09;5083985;28;20328;-70
2021/06/02 11:07:26;;;;;;;3.33;2.60;;;;;;;22.02;34.26;101418.97;5085210;28;20032;-71
2021/06/02 11:10:06;;;;;;;6.25;3.40;;;;;;;21.75;34.95;101413.84;5084966;28;20032;-72
2021/06/02 11:12:57;;;;;;;6.80;2.65;;;;;;;22.25;33.84;101402.13;5085848;28;20039;-68
2021/06/02 11:15:35;;;;;;;6.45;2.53;;;;;;;22.04;34.35;101407.38;5085105;28;20024;-71
2021/06/02 11:18:06;;;;;;;5.88;3.13;;;;;;;21.85;34.87;101414.38;5083629;28;20016;-72
2021/06/02 11:20:58;;;;;;;7.88;3.50;;;;;;;21.94;35.30;101408.72;5085321;28;20024;-72
2021/06/02 11:23:35;;;;;;;7.00;3.10;;;;;;;22.10;34.92;101405.44;5084019;28;20130;-72
2021/06/02 11:26:21;;;;;;;4.68;2.33;;;;;;;22.45;33.90;101418.09;5085314;28;20031;-70
2021/06/02 11:28:48;;;;;;;9.30;3.20;;;;;;;22.14;34.47;101447.53;5085047;28;20017;-71
2021/06/02 11:31:25;;;;;;;6.30;3.45;;;;;;;21.94;35.14;101424.56;5085181;28;20531;-72
2021/06/02 11:33:52;;;;;;;5.53;3.63;;;;;;;22.10;34.68;101419.50;5083509;28;20028;-72
2021/06/02 11:36:18;;;;;;;6.00;2.33;;;;;;;22.44;32.74;101406.66;5085006;28;20024;-65
2021/06/02 11:38:44;;;;;;;3.38;2.50;;;;;;;22.19;33.55;101412.97;5084619;28;20025;-66
2021/06/02 11:41:14;;;;;;;6.80;2.80;;;;;;;22.03;34.26;101440.06;5084964;28;20074;-66
2021/06/02 11:43:40;;;;;;;5.63;3.53;;;;;;;21.60;35.07;101420.59;5084907;28;20034;-69
2021/06/02 11:46:06;;;;;;;4.32;3.30;;;;;;;21.53;35.75;101412.88;5084856;28;20048;-71
2021/06/02 11:48:34;;;;;;;7.72;3.78;;;;;;;21.65;35.88;101423.91;5084222;28;20104;-72
2021/06/02 11:51:04;;;;;;;6.63;3.25;;;;;;;21.92;35.12;101434.34;5084614;28;20028;-71
2021/06/02 11:53:41;;;;;;;7.00;3.67;;;;;;;22.01;34.71;101420.75;5083276;28;20024;-71
2021/06/02 11:56:06;;;;;;;6.00;3.63;;;;;;;21.98;34.92;101441.19;5084161;28;20020;-71
2021/06/02 11:58:32;;;;;;;5.03;3.47;;;;;;;21.89;34.78;101423.88;5083694;28;20031;-73
2021/06/02 12:00:57;;;;;;;6.13;3.42;;;;;;;22.16;33.78;101431.63;5084535;28;20423;-73